Flight Track Log - Related Links

Times and Time Zones

All times are in EDT time to prevent confusion due to time zone crossing. See the SWA224 flight status page for this flight to view local times or setup timezone preferences in your user account.


Time Position Orientation Groundspeed Altitude Reporting Facility
EDT Latitude Longitude Course Direction KTS MPH feet Rate Location/Type
Sat 11:17:58 AM 37.7167 -122.2500 310° West 149 171 1,300  Level Northern Cal TRACON
Sat 11:18:52 AM 37.7500 -122.3000 310° West 206 237 3,900 3,368 Climbing Northern Cal TRACON
Sat 11:19:52 AM 37.7667 -122.3667 288° West 233 268 7,700 3,100 Climbing Northern Cal TRACON
Sat 11:20:52 AM 37.7500 -122.4667 258° West 295 339 10,100 2,950 Climbing Northern Cal TRACON
Sat 11:21:52 AM 37.6667 -122.5167 205° Southwest 350 403 13,600 3,662 Climbing Northern Cal TRACON
Sat 11:23:08 AM 37.5636 -122.4881 168° South 369 425 18,400 3,153 Climbing Oakland Center
Sat 11:24:09 AM 37.4981 -122.3883 130° Southeast 371 427 20,800 2,656 Climbing Oakland Center
Sat 11:25:10 AM 37.4292 -122.2847 130° Southeast 383 441 23,800 2,780 Climbing Oakland Center
Sat 11:26:12 AM 37.3558 -122.1706 129° Southeast 410 472 26,500 2,537 Climbing Oakland Center
Sat 11:27:13 AM 37.2775 -122.0539 130° Southeast 432 497 29,000 2,213 Climbing Oakland Center
Sat 11:28:14 AM 37.1947 -121.9303 130° Southeast 452 520 31,000 2,213 Climbing Oakland Center
Sat 11:29:15 AM 37.0967 -121.7822 130° Southeast 472 543 33,500 2,262 Climbing Oakland Center
Sat 11:30:16 AM 37.0042 -121.6536 132° Southeast 478 550 35,600 1,918 Climbing Oakland Center
Sat 11:31:17 AM 36.9172 -121.5236 130° Southeast 486 559 37,400 2,016 Climbing Oakland Center
Sat 11:32:18 AM 36.8339 -121.3928 128° Southeast 483 556 39,700 1,770 Climbing Oakland Center
Sat 11:33:19 AM 36.7511 -121.2794 132° Southeast 463 533 41,000 634 Climbing Oakland Center
Sat 11:34:21 AM 36.6700 -121.1553 129° Southeast 460 529 41,000  Level Oakland Center
Sat 11:35:22 AM 36.5844 -121.0344 131° Southeast 463 533 41,000  Level Oakland Center
Sat 11:36:23 AM 36.5011 -120.9117 130° Southeast 464 534 41,000  Level Oakland Center
Sat 11:37:24 AM 36.4167 -120.7908 131° Southeast 463 533 41,000  Level Oakland Center
Sat 11:38:25 AM 36.3328 -120.6686 130° Southeast 463 533 41,000  Level Oakland Center
Sat 11:39:26 AM 36.2311 -120.5250 131° Southeast 460 529 41,000  Level Oakland Center
Sat 11:40:27 AM 36.1458 -120.3978 130° Southeast 477 549 41,000  Level Oakland Center
Sat 11:41:29 AM 36.0617 -120.2775 131° Southeast 465 535 41,000  Level Oakland Center
Sat 11:42:30 AM 35.9778 -120.1614 132° Southeast 451 519 41,000  Level Oakland Center
Sat 11:43:31 AM 35.8928 -120.0431 132° Southeast 452 520 41,000  Level Oakland Center
Sat 11:44:32 AM 35.8075 -119.9206 131° Southeast 462 532 41,000  Level Oakland Center
Sat 11:45:33 AM 35.7194 -119.7972 131° Southeast 473 544 41,000  Level Oakland Center
Sat 11:46:34 AM 35.6322 -119.6753 131° Southeast 472 543 41,000  Level Oakland Center
Sat 11:47:35 AM 35.5456 -119.5553 132° Southeast 469 540 41,000  Level Oakland Center
Sat 11:48:37 AM 35.4600 -119.4347 131° Southeast 468 539 41,000  Level Oakland Center
Sat 11:49:15 AM 35.4086 -119.3636 132° Southeast 465 535 41,000  Level Los Angeles Center
Sat 11:50:16 AM 35.3472 -119.2206 118° Southeast 472 543 41,000  Level Los Angeles Center
Sat 11:51:18 AM 35.2828 -119.0419 114° Southeast 479 551 41,000  Level Los Angeles Center
Sat 11:52:20 AM 35.2283 -118.8933 114° Southeast 479 551 41,000  Level Los Angeles Center
Sat 11:53:33 AM 35.1728 -118.7444 115° Southeast 480 552 41,000  Level Los Angeles Center
Sat 11:54:35 AM 35.1025 -118.5672 116° Southeast 481 554 41,000  Level Los Angeles Center
Sat 11:55:37 AM 35.0594 -118.4506 114° Southeast 480 552 41,000  Level Los Angeles Center
Sat 11:56:39 AM 34.9933 -118.2722 114° Southeast 482 555 41,000  Level Los Angeles Center
Sat 11:57:41 AM 34.9367 -118.1242 115° Southeast 477 549 41,000  Level Los Angeles Center
Sat 11:58:42 AM 34.8714 -117.9531 115° Southeast 476 548 41,000  Level Los Angeles Center
Sat 11:59:44 AM 34.8256 -117.8375 116° Southeast 478 550 41,000  Level Los Angeles Center
Sat 12:00:46 PM 34.7597 -117.6611 114° Southeast 486 559 41,000  Level Los Angeles Center
Sat 12:02:00 PM 34.6908 -117.4853 115° Southeast 489 563 41,000  Level Los Angeles Center
Sat 12:03:14 PM 34.6347 -117.3389 115° Southeast 486 559 41,000  Level Los Angeles Center
Sat 12:04:16 PM 34.5564 -117.1356 115° Southeast 479 551 41,000  Level Los Angeles Center
Sat 12:05:18 PM 34.4997 -116.9919 116° Southeast 478 550 41,000  Level Los Angeles Center
Sat 12:06:20 PM 34.4431 -116.8475 115° Southeast 478 550 41,000  Level Los Angeles Center
Sat 12:07:22 PM 34.3869 -116.7014 115° Southeast 481 554 41,000  Level Los Angeles Center
Sat 12:08:24 PM 34.3292 -116.5583 116° Southeast 477 549 41,000  Level Los Angeles Center
Sat 12:09:25 PM 34.2739 -116.4111 114° Southeast 482 555 41,000  Level Los Angeles Center
Sat 12:10:27 PM 34.2036 -116.2406 116° Southeast 475 547 41,000  Level Los Angeles Center
Sat 12:11:29 PM 34.1456 -116.0961 116° Southeast 477 549 41,000  Level Los Angeles Center
Sat 12:12:43 PM 34.0900 -115.9636 117° Southeast 475 547 41,000  Level Los Angeles Center
Sat 12:13:45 PM 34.0064 -115.7575 116° Southeast 487 560 41,000 -290 Level Los Angeles Center
Sat 12:14:47 PM 33.9475 -115.6117 116° Southeast 484 557 40,400 -774 Descending Los Angeles Center
Sat 12:15:49 PM 33.8889 -115.4683 116° Southeast 477 549 39,400 -919 Descending Los Angeles Center
Sat 12:16:51 PM 33.8306 -115.3272 116° Southeast 472 543 38,500 -677 Descending Los Angeles Center
Sat 12:17:53 PM 33.7717 -115.1883 117° Southeast 466 536 38,000 -242 Descending Los Angeles Center
Sat 12:18:55 PM 33.7150 -115.0492 116° Southeast 464 534 38,000  Level Los Angeles Center
Sat 12:19:57 PM 33.6575 -114.9106 116° Southeast 464 534 38,000  Level Los Angeles Center
Sat 12:20:59 PM 33.5892 -114.7414 116° Southeast 468 539 38,000 -1,161 Level Los Angeles Center
Sat 12:22:01 PM 33.5608 -114.5883 102° East 471 542 35,600 -2,973 Descending Los Angeles Center
Sat 12:22:50 PM 33.5392 -114.4753 103° East 465 535 32,500 -3,459 Descending Albuquerque Center
Sat 12:23:52 PM 33.5111 -114.3186 102° East 476 548 29,200 -2,952 Descending Albuquerque Center
Sat 12:24:54 PM 33.4819 -114.1689 103° East 467 537 26,400 -2,049 Descending Albuquerque Center
Sat 12:25:55 PM 33.4533 -114.0244 103° East 451 519 25,000 -683 Descending Albuquerque Center
Sat 12:26:57 PM 33.4242 -113.8822 104° East 443 510 25,000  Level Albuquerque Center
Sat 12:27:58 PM 33.3878 -113.7100 104° East 446 513 25,000 -537 Level Albuquerque Center
Sat 12:29:00 PM 33.3594 -113.5669 103° East 444 511 23,900 -1,500 Descending Albuquerque Center
Sat 12:30:02 PM 33.3308 -113.4264 104° East 437 503 21,900 -2,049 Descending Albuquerque Center
Sat 12:31:03 PM 33.3044 -113.2983 104° East 408 470 19,700 -2,293 Descending Albuquerque Center
Sat 12:32:05 PM 33.2786 -113.1742 104° East 391 450 17,200 -2,081 Descending Albuquerque Center
Sat 12:33:07 PM 33.2747 -113.0517 92° East 377 434 15,400 -1,854 Descending Albuquerque Center
Sat 12:34:08 PM 33.2781 -112.9358 88° East 355 409 13,400 -1,756 Descending Albuquerque Center
Sat 12:35:10 PM 33.2806 -112.8244 88° East 342 394 11,800 -1,597 Descending Albuquerque Center
Sat 12:36:12 PM 33.3200 -112.7133 67° East 309 356 10,100 -1,073 Descending Albuquerque Center
Sat 12:37:13 PM 33.3525 -112.6278 66° East 288 331 9,600 -829 Descending Albuquerque Center
Sat 12:38:15 PM 33.3822 -112.5525 65° Northeast 272 313 8,400 -919 Descending Albuquerque Center
Sat 12:39:17 PM 33.4100 -112.4764 66° East 253 291 7,700 -677 Descending Albuquerque Center
Sat 12:40:19 PM 33.4294 -112.4033 72° East 235 270 7,000 -927 Descending Albuquerque Center
Sat 12:41:20 PM 33.4303 -112.3081 89° East 239 275 5,800 -1,024 Descending Albuquerque Center
Sat 12:42:22 PM 33.4383 -112.2294 83° East 239 275 4,900 -1,065 Descending Albuquerque Center
Sat 12:43:24 PM 33.4411 -112.1658 87° East 194 223 3,600 -1,171 Descending Albuquerque Center
Sat 12:44:25 PM 33.4406 -112.1094 91° East 174 200 2,500 -927 Descending Albuquerque Center
Sat 12:45:27 PM 33.4408 -112.0644 90° East 140 161 1,700 -677 Descending Albuquerque Center
Sat 12:46:29 PM 33.4400 -112.0225 91° East 131 151 1,100 -581 Descending Albuquerque Center
Sat 12:48:00 PM 33.4343 -112.0116 90° East  Level Estimated

Login

Don't have an account? Register now (free) for customized features, flight alerts, and more!